sensor_id;sensor_type;location;lat;lon;timestamp;P1;durP1;ratioP1;P2;durP2;ratioP2
18013;SDS011;9132;47.946;10.394;2023-07-28T00:00:15;2.80;;;2.60;;
18013;SDS011;9132;47.946;10.394;2023-07-28T00:02:42;3.60;;;2.53;;
18013;SDS011;9132;47.946;10.394;2023-07-28T00:05:09;3.17;;;2.50;;
18013;SDS011;9132;47.946;10.394;2023-07-28T00:07:35;5.15;;;2.70;;
18013;SDS011;9132;47.946;10.394;2023-07-28T00:10:02;3.38;;;2.33;;
18013;SDS011;9132;47.946;10.394;2023-07-28T00:12:28;2.38;;;2.17;;
18013;SDS011;9132;47.946;10.394;2023-07-28T00:14:55;3.50;;;2.50;;
18013;SDS011;9132;47.946;10.394;2023-07-28T00:17:21;7.18;;;2.35;;
18013;SDS011;9132;47.946;10.394;2023-07-28T00:19:49;3.05;;;2.72;;
18013;SDS011;9132;47.946;10.394;2023-07-28T00:22:15;3.00;;;2.70;;
18013;SDS011;9132;47.946;10.394;2023-07-28T00:24:42;3.03;;;2.72;;
18013;SDS011;9132;47.946;10.394;2023-07-28T00:27:09;4.35;;;2.38;;
18013;SDS011;9132;47.946;10.394;2023-07-28T00:29:35;3.92;;;2.30;;
18013;SDS011;9132;47.946;10.394;2023-07-28T00:32:01;3.75;;;2.25;;
18013;SDS011;9132;47.946;10.394;2023-07-28T00:34:28;2.55;;;2.35;;
18013;SDS011;9132;47.946;10.394;2023-07-28T00:36:56;2.83;;;2.47;;
18013;SDS011;9132;47.946;10.394;2023-07-28T00:39:22;3.25;;;2.53;;
18013;SDS011;9132;47.946;10.394;2023-07-28T00:41:48;2.88;;;2.55;;
18013;SDS011;9132;47.946;10.394;2023-07-28T00:44:15;4.97;;;2.88;;
18013;SDS011;9132;47.946;10.394;2023-07-28T00:46:42;4.38;;;2.60;;
18013;SDS011;9132;47.946;10.394;2023-07-28T00:49:08;3.30;;;2.75;;
18013;SDS011;9132;47.946;10.394;2023-07-28T00:51:35;3.25;;;2.63;;
18013;SDS011;9132;47.946;10.394;2023-07-28T00:54:03;4.63;;;2.67;;
18013;SDS011;9132;47.946;10.394;2023-07-28T00:56:30;4.13;;;2.63;;
18013;SDS011;9132;47.946;10.394;2023-07-28T00:58:57;2.70;;;2.50;;
18013;SDS011;9132;47.946;10.394;2023-07-28T01:01:23;3.23;;;2.93;;
18013;SDS011;9132;47.946;10.394;2023-07-28T01:03:50;3.10;;;2.67;;
18013;SDS011;9132;47.946;10.394;2023-07-28T01:06:18;3.57;;;3.00;;
18013;SDS011;9132;47.946;10.394;2023-07-28T01:08:48;2.67;;;2.47;;
18013;SDS011;9132;47.946;10.394;2023-07-28T01:11:17;4.43;;;2.63;;
18013;SDS011;9132;47.946;10.394;2023-07-28T01:13:43;3.20;;;2.77;;
18013;SDS011;9132;47.946;10.394;2023-07-28T01:16:09;3.70;;;2.80;;
18013;SDS011;9132;47.946;10.394;2023-07-28T01:18:36;3.57;;;2.90;;
18013;SDS011;9132;47.946;10.394;2023-07-28T01:21:03;2.97;;;2.67;;
18013;SDS011;9132;47.946;10.394;2023-07-28T01:23:34;2.80;;;2.40;;
18013;SDS011;9132;47.946;10.394;2023-07-28T01:26:03;3.67;;;2.87;;
18013;SDS011;9132;47.946;10.394;2023-07-28T01:28:33;2.93;;;2.67;;
18013;SDS011;9132;47.946;10.394;2023-07-28T01:31:00;3.77;;;2.97;;
18013;SDS011;9132;47.946;10.394;2023-07-28T01:33:27;3.10;;;2.60;;
18013;SDS011;9132;47.946;10.394;2023-07-28T01:35:53;4.40;;;3.10;;
18013;SDS011;9132;47.946;10.394;2023-07-28T01:38:20;3.40;;;2.90;;
18013;SDS011;9132;47.946;10.394;2023-07-28T01:40:46;3.87;;;2.63;;
18013;SDS011;9132;47.946;10.394;2023-07-28T01:43:13;3.27;;;2.97;;
18013;SDS011;9132;47.946;10.394;2023-07-28T01:45:40;3.07;;;2.50;;
18013;SDS011;9132;47.946;10.394;2023-07-28T01:48:07;3.27;;;2.63;;
18013;SDS011;9132;47.946;10.394;2023-07-28T01:50:34;3.27;;;2.97;;
18013;SDS011;9132;47.946;10.394;2023-07-28T01:53:01;3.23;;;2.50;;
18013;SDS011;9132;47.946;10.394;2023-07-28T01:55:27;4.17;;;2.70;;
18013;SDS011;9132;47.946;10.394;2023-07-28T01:57:55;5.17;;;2.70;;
18013;SDS011;9132;47.946;10.394;2023-07-28T02:00:22;3.20;;;2.63;;
18013;SDS011;9132;47.946;10.394;2023-07-28T02:02:50;2.83;;;2.57;;
18013;SDS011;9132;47.946;10.394;2023-07-28T02:05:17;5.00;;;2.70;;
18013;SDS011;9132;47.946;10.394;2023-07-28T02:07:43;3.97;;;2.50;;
18013;SDS011;9132;47.946;10.394;2023-07-28T02:10:10;3.77;;;2.80;;
18013;SDS011;9132;47.946;10.394;2023-07-28T02:12:36;2.97;;;2.63;;
18013;SDS011;9132;47.946;10.394;2023-07-28T02:15:03;2.40;;;2.13;;
18013;SDS011;9132;47.946;10.394;2023-07-28T02:17:29;3.03;;;2.77;;
18013;SDS011;9132;47.946;10.394;2023-07-28T02:19:57;2.87;;;2.33;;
18013;SDS011;9132;47.946;10.394;2023-07-28T02:22:23;4.97;;;3.07;;
18013;SDS011;9132;47.946;10.394;2023-07-28T02:24:50;4.53;;;3.03;;
18013;SDS011;9132;47.946;10.394;2023-07-28T02:27:16;4.33;;;2.77;;
18013;SDS011;9132;47.946;10.394;2023-07-28T02:29:42;5.10;;;2.80;;
18013;SDS011;9132;47.946;10.394;2023-07-28T02:32:10;4.10;;;2.80;;
18013;SDS011;9132;47.946;10.394;2023-07-28T02:34:36;3.30;;;2.43;;
18013;SDS011;9132;47.946;10.394;2023-07-28T02:37:04;2.73;;;2.43;;
18013;SDS011;9132;47.946;10.394;2023-07-28T02:39:30;2.53;;;2.33;;
18013;SDS011;9132;47.946;10.394;2023-07-28T02:41:57;4.43;;;2.50;;
18013;SDS011;9132;47.946;10.394;2023-07-28T02:44:23;3.87;;;2.60;;
18013;SDS011;9132;47.946;10.394;2023-07-28T02:46:50;3.07;;;2.40;;
18013;SDS011;9132;47.946;10.394;2023-07-28T02:49:16;2.50;;;2.10;;
18013;SDS011;9132;47.946;10.394;2023-07-28T02:51:42;2.57;;;2.33;;
18013;SDS011;9132;47.946;10.394;2023-07-28T02:54:10;4.80;;;2.60;;
18013;SDS011;9132;47.946;10.394;2023-07-28T02:56:36;3.17;;;2.33;;
18013;SDS011;9132;47.946;10.394;2023-07-28T02:59:03;3.73;;;2.67;;
18013;SDS011;9132;47.946;10.394;2023-07-28T03:01:29;2.60;;;2.40;;
18013;SDS011;9132;47.946;10.394;2023-07-28T03:03:58;4.60;;;2.40;;
18013;SDS011;9132;47.946;10.394;2023-07-28T03:06:24;3.23;;;2.90;;
18013;SDS011;9132;47.946;10.394;2023-07-28T03:08:50;2.83;;;2.27;;
18013;SDS011;9132;47.946;10.394;2023-07-28T03:11:18;3.27;;;2.90;;
18013;SDS011;9132;47.946;10.394;2023-07-28T03:13:45;4.13;;;2.77;;
18013;SDS011;9132;47.946;10.394;2023-07-28T03:16:11;3.40;;;2.40;;
18013;SDS011;9132;47.946;10.394;2023-07-28T03:18:37;5.10;;;2.60;;
18013;SDS011;9132;47.946;10.394;2023-07-28T03:21:04;4.50;;;2.20;;
18013;SDS011;9132;47.946;10.394;2023-07-28T03:23:30;3.63;;;2.50;;
18013;SDS011;9132;47.946;10.394;2023-07-28T03:25:57;3.97;;;2.50;;
18013;SDS011;9132;47.946;10.394;2023-07-28T03:28:24;2.70;;;2.30;;
18013;SDS011;9132;47.946;10.394;2023-07-28T03:30:51;3.60;;;2.30;;
18013;SDS011;9132;47.946;10.394;2023-07-28T03:33:17;2.83;;;2.63;;
18013;SDS011;9132;47.946;10.394;2023-07-28T03:35:44;2.93;;;2.63;;
18013;SDS011;9132;47.946;10.394;2023-07-28T03:38:10;5.37;;;2.70;;
18013;SDS011;9132;47.946;10.394;2023-07-28T03:40:37;2.70;;;2.40;;
18013;SDS011;9132;47.946;10.394;2023-07-28T03:43:03;4.73;;;2.50;;
18013;SDS011;9132;47.946;10.394;2023-07-28T03:45:31;2.30;;;2.10;;
18013;SDS011;9132;47.946;10.394;2023-07-28T03:47:57;2.60;;;2.40;;
18013;SDS011;9132;47.946;10.394;2023-07-28T03:50:24;3.20;;;2.40;;
18013;SDS011;9132;47.946;10.394;2023-07-28T03:52:51;3.97;;;2.33;;
18013;SDS011;9132;47.946;10.394;2023-07-28T03:55:17;2.53;;;2.33;;
18013;SDS011;9132;47.946;10.394;2023-07-28T03:57:44;3.63;;;2.60;;
18013;SDS011;9132;47.946;10.394;2023-07-28T04:00:11;3.00;;;2.63;;
18013;SDS011;9132;47.946;10.394;2023-07-28T04:02:40;3.00;;;2.40;;
18013;SDS011;9132;47.946;10.394;2023-07-28T04:05:06;3.03;;;2.43;;
18013;SDS011;9132;47.946;10.394;2023-07-28T04:07:33;2.93;;;2.40;;
18013;SDS011;9132;47.946;10.394;2023-07-28T04:09:59;3.37;;;2.50;;
18013;SDS011;9132;47.946;10.394;2023-07-28T04:12:26;2.57;;;2.27;;
18013;SDS011;9132;47.946;10.394;2023-07-28T04:14:52;3.37;;;2.20;;
18013;SDS011;9132;47.946;10.394;2023-07-28T04:17:19;3.10;;;2.40;;
18013;SDS011;9132;47.946;10.394;2023-07-28T04:19:47;2.73;;;2.47;;
18013;SDS011;9132;47.946;10.394;2023-07-28T04:22:13;3.13;;;2.83;;
18013;SDS011;9132;47.946;10.394;2023-07-28T04:24:41;3.53;;;2.00;;
18013;SDS011;9132;47.946;10.394;2023-07-28T04:27:07;3.03;;;2.50;;
18013;SDS011;9132;47.946;10.394;2023-07-28T04:29:34;2.70;;;2.50;;
18013;SDS011;9132;47.946;10.394;2023-07-28T04:32:00;4.90;;;2.20;;
18013;SDS011;9132;47.946;10.394;2023-07-28T04:34:26;2.90;;;2.50;;
18013;SDS011;9132;47.946;10.394;2023-07-28T04:36:54;3.77;;;2.53;;
18013;SDS011;9132;47.946;10.394;2023-07-28T04:39:21;3.33;;;2.50;;
18013;SDS011;9132;47.946;10.394;2023-07-28T04:41:47;6.67;;;2.60;;
18013;SDS011;9132;47.946;10.394;2023-07-28T04:44:14;2.75;;;2.30;;
18013;SDS011;9132;47.946;10.394;2023-07-28T04:46:40;2.87;;;2.23;;
18013;SDS011;9132;47.946;10.394;2023-07-28T04:49:06;2.43;;;1.97;;
18013;SDS011;9132;47.946;10.394;2023-07-28T04:51:33;2.88;;;2.40;;
18013;SDS011;9132;47.946;10.394;2023-07-28T04:54:00;2.80;;;2.33;;
18013;SDS011;9132;47.946;10.394;2023-07-28T04:56:27;3.08;;;2.25;;
18013;SDS011;9132;47.946;10.394;2023-07-28T04:58:53;2.30;;;2.10;;
18013;SDS011;9132;47.946;10.394;2023-07-28T05:01:19;3.22;;;2.20;;
18013;SDS011;9132;47.946;10.394;2023-07-28T05:03:46;2.40;;;2.17;;
18013;SDS011;9132;47.946;10.394;2023-07-28T05:06:12;2.55;;;2.15;;
18013;SDS011;9132;47.946;10.394;2023-07-28T05:08:39;2.97;;;2.28;;
18013;SDS011;9132;47.946;10.394;2023-07-28T05:11:07;2.85;;;2.22;;
18013;SDS011;9132;47.946;10.394;2023-07-28T05:13:33;4.32;;;2.33;;
18013;SDS011;9132;47.946;10.394;2023-07-28T05:15:59;2.42;;;2.13;;
18013;SDS011;9132;47.946;10.394;2023-07-28T05:18:26;2.45;;;2.13;;
18013;SDS011;9132;47.946;10.394;2023-07-28T05:20:52;4.25;;;2.67;;
18013;SDS011;9132;47.946;10.394;2023-07-28T05:23:19;2.40;;;2.15;;
18013;SDS011;9132;47.946;10.394;2023-07-28T05:25:45;2.60;;;2.10;;
18013;SDS011;9132;47.946;10.394;2023-07-28T05:28:13;2.70;;;2.38;;
18013;SDS011;9132;47.946;10.394;2023-07-28T05:30:39;2.20;;;2.00;;
18013;SDS011;9132;47.946;10.394;2023-07-28T05:33:06;3.50;;;2.13;;
18013;SDS011;9132;47.946;10.394;2023-07-28T05:35:32;3.47;;;2.10;;
18013;SDS011;9132;47.946;10.394;2023-07-28T05:37:58;3.28;;;2.28;;
18013;SDS011;9132;47.946;10.394;2023-07-28T05:40:25;2.15;;;1.95;;
18013;SDS011;9132;47.946;10.394;2023-07-28T05:42:51;2.53;;;2.33;;
18013;SDS011;9132;47.946;10.394;2023-07-28T05:45:19;3.58;;;2.20;;
18013;SDS011;9132;47.946;10.394;2023-07-28T05:47:45;3.25;;;2.00;;
18013;SDS011;9132;47.946;10.394;2023-07-28T05:50:12;3.33;;;2.60;;
18013;SDS011;9132;47.946;10.394;2023-07-28T05:52:38;2.72;;;2.20;;
18013;SDS011;9132;47.946;10.394;2023-07-28T05:55:05;2.63;;;2.28;;
18013;SDS011;9132;47.946;10.394;2023-07-28T05:57:31;2.33;;;2.00;;
18013;SDS011;9132;47.946;10.394;2023-07-28T05:59:58;2.40;;;2.00;;
18013;SDS011;9132;47.946;10.394;2023-07-28T06:02:25;2.92;;;1.98;;
18013;SDS011;9132;47.946;10.394;2023-07-28T06:04:52;2.00;;;1.77;;
18013;SDS011;9132;47.946;10.394;2023-07-28T06:07:19;3.45;;;2.38;;
18013;SDS011;9132;47.946;10.394;2023-07-28T06:09:45;3.15;;;2.00;;
18013;SDS011;9132;47.946;10.394;2023-07-28T06:12:12;2.10;;;1.90;;
18013;SDS011;9132;47.946;10.394;2023-07-28T06:14:38;3.40;;;2.17;;
18013;SDS011;9132;47.946;10.394;2023-07-28T06:17:04;3.50;;;2.40;;
18013;SDS011;9132;47.946;10.394;2023-07-28T06:19:33;2.85;;;2.20;;
18013;SDS011;9132;47.946;10.394;2023-07-28T06:22:00;2.85;;;1.85;;
18013;SDS011;9132;47.946;10.394;2023-07-28T06:24:26;2.30;;;1.90;;
18013;SDS011;9132;47.946;10.394;2023-07-28T06:26:55;2.17;;;1.98;;
18013;SDS011;9132;47.946;10.394;2023-07-28T06:29:22;2.40;;;2.20;;
18013;SDS011;9132;47.946;10.394;2023-07-28T06:31:48;2.08;;;1.88;;
18013;SDS011;9132;47.946;10.394;2023-07-28T06:34:15;3.22;;;2.10;;
18013;SDS011;9132;47.946;10.394;2023-07-28T06:36:43;2.50;;;2.10;;
18013;SDS011;9132;47.946;10.394;2023-07-28T06:39:09;3.55;;;2.05;;
18013;SDS011;9132;47.946;10.394;2023-07-28T06:41:35;2.72;;;2.10;;
18013;SDS011;9132;47.946;10.394;2023-07-28T06:44:02;2.88;;;2.20;;
18013;SDS011;9132;47.946;10.394;2023-07-28T06:46:28;3.40;;;1.70;;
18013;SDS011;9132;47.946;10.394;2023-07-28T06:48:55;2.20;;;1.95;;
18013;SDS011;9132;47.946;10.394;2023-07-28T06:51:21;2.03;;;1.83;;
18013;SDS011;9132;47.946;10.394;2023-07-28T06:53:49;2.38;;;1.80;;
18013;SDS011;9132;47.946;10.394;2023-07-28T06:56:15;2.42;;;2.10;;
18013;SDS011;9132;47.946;10.394;2023-07-28T06:58:42;3.95;;;1.92;;
18013;SDS011;9132;47.946;10.394;2023-07-28T07:01:08;2.05;;;1.85;;
18013;SDS011;9132;47.946;10.394;2023-07-28T07:03:35;2.65;;;1.80;;
18013;SDS011;9132;47.946;10.394;2023-07-28T07:06:02;2.42;;;2.00;;
18013;SDS011;9132;47.946;10.394;2023-07-28T07:08:28;2.33;;;2.10;;
18013;SDS011;9132;47.946;10.394;2023-07-28T07:10:56;2.17;;;1.98;;
18013;SDS011;9132;47.946;10.394;2023-07-28T07:13:23;2.53;;;1.92;;
18013;SDS011;9132;47.946;10.394;2023-07-28T07:15:49;3.17;;;1.90;;
18013;SDS011;9132;47.946;10.394;2023-07-28T07:18:16;2.40;;;2.00;;
18013;SDS011;9132;47.946;10.394;2023-07-28T07:20:42;3.03;;;1.92;;
18013;SDS011;9132;47.946;10.394;2023-07-28T07:23:09;3.33;;;2.10;;
18013;SDS011;9132;47.946;10.394;2023-07-28T07:25:35;2.17;;;1.98;;
18013;SDS011;9132;47.946;10.394;2023-07-28T07:28:03;3.13;;;2.17;;
18013;SDS011;9132;47.946;10.394;2023-07-28T07:30:31;2.05;;;1.90;;
18013;SDS011;9132;47.946;10.394;2023-07-28T07:32:58;2.90;;;2.15;;
18013;SDS011;9132;47.946;10.394;2023-07-28T07:35:24;2.25;;;2.05;;
18013;SDS011;9132;47.946;10.394;2023-07-28T07:37:51;3.47;;;2.30;;
18013;SDS011;9132;47.946;10.394;2023-07-28T07:40:17;2.45;;;1.85;;
18013;SDS011;9132;47.946;10.394;2023-07-28T07:42:45;3.78;;;1.92;;
18013;SDS011;9132;47.946;10.394;2023-07-28T07:45:13;3.38;;;1.98;;
18013;SDS011;9132;47.946;10.394;2023-07-28T07:47:40;3.13;;;2.40;;
18013;SDS011;9132;47.946;10.394;2023-07-28T07:50:07;2.92;;;1.90;;
18013;SDS011;9132;47.946;10.394;2023-07-28T07:52:34;2.45;;;1.90;;
18013;SDS011;9132;47.946;10.394;2023-07-28T07:55:01;3.13;;;1.90;;
18013;SDS011;9132;47.946;10.394;2023-07-28T07:57:27;2.70;;;2.10;;
18013;SDS011;9132;47.946;10.394;2023-07-28T07:59:54;2.00;;;1.90;;
18013;SDS011;9132;47.946;10.394;2023-07-28T08:02:21;3.65;;;2.15;;
18013;SDS011;9132;47.946;10.394;2023-07-28T08:04:48;2.15;;;1.80;;
18013;SDS011;9132;47.946;10.394;2023-07-28T08:07:15;2.10;;;1.90;;
18013;SDS011;9132;47.946;10.394;2023-07-28T08:09:42;2.33;;;1.90;;
18013;SDS011;9132;47.946;10.394;2023-07-28T08:12:08;2.70;;;1.98;;
18013;SDS011;9132;47.946;10.394;2023-07-28T08:14:35;2.30;;;2.10;;
18013;SDS011;9132;47.946;10.394;2023-07-28T08:17:01;2.50;;;2.10;;
18013;SDS011;9132;47.946;10.394;2023-07-28T08:19:29;2.22;;;1.95;;
18013;SDS011;9132;47.946;10.394;2023-07-28T08:21:55;2.53;;;1.75;;
18013;SDS011;9132;47.946;10.394;2023-07-28T08:24:21;3.30;;;2.08;;
18013;SDS011;9132;47.946;10.394;2023-07-28T08:26:48;2.45;;;1.52;;
18013;SDS011;9132;47.946;10.394;2023-07-28T08:29:15;2.10;;;1.90;;
18013;SDS011;9132;47.946;10.394;2023-07-28T08:31:41;2.88;;;1.88;;
18013;SDS011;9132;47.946;10.394;2023-07-28T08:34:07;2.15;;;1.95;;
18013;SDS011;9132;47.946;10.394;2023-07-28T08:36:35;2.45;;;1.63;;
18013;SDS011;9132;47.946;10.394;2023-07-28T08:39:02;2.25;;;2.05;;
18013;SDS011;9132;47.946;10.394;2023-07-28T08:41:28;2.40;;;1.80;;
18013;SDS011;9132;47.946;10.394;2023-07-28T08:43:55;2.60;;;2.22;;
18013;SDS011;9132;47.946;10.394;2023-07-28T08:46:22;2.60;;;1.73;;
18013;SDS011;9132;47.946;10.394;2023-07-28T08:48:48;2.25;;;1.88;;
18013;SDS011;9132;47.946;10.394;2023-07-28T08:51:15;2.05;;;1.85;;
18013;SDS011;9132;47.946;10.394;2023-07-28T08:53:43;2.78;;;2.00;;
18013;SDS011;9132;47.946;10.394;2023-07-28T08:56:09;2.03;;;1.83;;
18013;SDS011;9132;47.946;10.394;2023-07-28T08:58:35;1.98;;;1.52;;
18013;SDS011;9132;47.946;10.394;2023-07-28T09:01:02;3.33;;;1.60;;
18013;SDS011;9132;47.946;10.394;2023-07-28T09:03:29;3.95;;;1.98;;
18013;SDS011;9132;47.946;10.394;2023-07-28T09:05:58;3.03;;;1.88;;
18013;SDS011;9132;47.946;10.394;2023-07-28T09:08:25;2.20;;;1.70;;
18013;SDS011;9132;47.946;10.394;2023-07-28T09:10:53;2.15;;;1.55;;
18013;SDS011;9132;47.946;10.394;2023-07-28T09:13:20;2.42;;;1.77;;
18013;SDS011;9132;47.946;10.394;2023-07-28T09:15:46;1.92;;;1.70;;
18013;SDS011;9132;47.946;10.394;2023-07-28T09:18:15;2.20;;;1.70;;
18013;SDS011;9132;47.946;10.394;2023-07-28T09:20:42;3.15;;;2.13;;
18013;SDS011;9132;47.946;10.394;2023-07-28T09:23:09;1.85;;;1.70;;
18013;SDS011;9132;47.946;10.394;2023-07-28T09:25:36;1.92;;;1.73;;
18013;SDS011;9132;47.946;10.394;2023-07-28T09:28:04;3.83;;;2.10;;
18013;SDS011;9132;47.946;10.394;2023-07-28T09:30:42;3.42;;;2.08;;
18013;SDS011;9132;47.946;10.394;2023-07-28T09:33:09;3.28;;;2.10;;
18013;SDS011;9132;47.946;10.394;2023-07-28T09:35:36;3.45;;;1.90;;
18013;SDS011;9132;47.946;10.394;2023-07-28T09:38:12;4.70;;;2.08;;
18013;SDS011;9132;47.946;10.394;2023-07-28T09:40:40;2.78;;;2.10;;
18013;SDS011;9132;47.946;10.394;2023-07-28T09:43:08;2.20;;;2.00;;
18013;SDS011;9132;47.946;10.394;2023-07-28T09:45:35;2.25;;;2.05;;
18013;SDS011;9132;47.946;10.394;2023-07-28T09:48:02;3.85;;;1.73;;
18013;SDS011;9132;47.946;10.394;2023-07-28T09:50:28;3.28;;;1.90;;
18013;SDS011;9132;47.946;10.394;2023-07-28T09:53:01;3.10;;;2.13;;
18013;SDS011;9132;47.946;10.394;2023-07-28T09:55:28;2.15;;;1.80;;
18013;SDS011;9132;47.946;10.394;2023-07-28T09:57:55;2.30;;;2.10;;
18013;SDS011;9132;47.946;10.394;2023-07-28T10:00:23;2.88;;;2.08;;
18013;SDS011;9132;47.946;10.394;2023-07-28T10:02:50;2.60;;;2.00;;
18013;SDS011;9132;47.946;10.394;2023-07-28T10:05:16;3.20;;;2.20;;
18013;SDS011;9132;47.946;10.394;2023-07-28T10:07:43;2.58;;;2.08;;
18013;SDS011;9132;47.946;10.394;2023-07-28T10:10:10;1.90;;;1.80;;
18013;SDS011;9132;47.946;10.394;2023-07-28T10:12:41;2.80;;;2.20;;
18013;SDS011;9132;47.946;10.394;2023-07-28T10:15:11;3.22;;;2.15;;
18013;SDS011;9132;47.946;10.394;2023-07-28T10:17:39;3.13;;;2.28;;
18013;SDS011;9132;47.946;10.394;2023-07-28T10:20:21;3.33;;;2.20;;
18013;SDS011;9132;47.946;10.394;2023-07-28T10:22:53;2.25;;;2.05;;
18013;SDS011;9132;47.946;10.394;2023-07-28T10:25:21;2.67;;;2.35;;
18013;SDS011;9132;47.946;10.394;2023-07-28T10:27:50;3.45;;;2.40;;
18013;SDS011;9132;47.946;10.394;2023-07-28T10:30:17;2.20;;;2.00;;
18013;SDS011;9132;47.946;10.394;2023-07-28T10:32:48;3.05;;;2.30;;
18013;SDS011;9132;47.946;10.394;2023-07-28T10:35:22;2.63;;;2.42;;
18013;SDS011;9132;47.946;10.394;2023-07-28T10:37:48;3.00;;;2.28;;
18013;SDS011;9132;47.946;10.394;2023-07-28T10:40:22;2.63;;;2.28;;
18013;SDS011;9132;47.946;10.394;2023-07-28T10:42:49;2.30;;;2.10;;
18013;SDS011;9132;47.946;10.394;2023-07-28T10:45:15;2.47;;;2.05;;
18013;SDS011;9132;47.946;10.394;2023-07-28T10:47:42;4.00;;;2.60;;
18013;SDS011;9132;47.946;10.394;2023-07-28T10:50:10;3.28;;;2.55;;
18013;SDS011;9132;47.946;10.394;2023-07-28T10:52:38;3.08;;;2.40;;
18013;SDS011;9132;47.946;10.394;2023-07-28T10:55:05;2.83;;;2.40;;
18013;SDS011;9132;47.946;10.394;2023-07-28T10:57:37;4.03;;;2.60;;
18013;SDS011;9132;47.946;10.394;2023-07-28T11:00:04;2.53;;;2.22;;
18013;SDS011;9132;47.946;10.394;2023-07-28T11:02:32;4.95;;;2.50;;
18013;SDS011;9132;47.946;10.394;2023-07-28T11:04:59;4.30;;;2.67;;
18013;SDS011;9132;47.946;10.394;2023-07-28T11:07:27;3.22;;;2.70;;
18013;SDS011;9132;47.946;10.394;2023-07-28T11:09:53;4.72;;;2.70;;
18013;SDS011;9132;47.946;10.394;2023-07-28T11:12:20;4.25;;;2.38;;
18013;SDS011;9132;47.946;10.394;2023-07-28T11:14:46;3.80;;;2.50;;
18013;SDS011;9132;47.946;10.394;2023-07-28T11:17:14;2.75;;;2.55;;
18013;SDS011;9132;47.946;10.394;2023-07-28T11:19:40;4.25;;;2.58;;
18013;SDS011;9132;47.946;10.394;2023-07-28T11:22:07;2.75;;;2.55;;
18013;SDS011;9132;47.946;10.394;2023-07-28T11:24:34;2.78;;;2.58;;
18013;SDS011;9132;47.946;10.394;2023-07-28T11:27:01;2.75;;;2.47;;
18013;SDS011;9132;47.946;10.394;2023-07-28T11:29:28;4.30;;;2.78;;
18013;SDS011;9132;47.946;10.394;2023-07-28T11:31:54;4.93;;;2.90;;
18013;SDS011;9132;47.946;10.394;2023-07-28T11:34:21;4.85;;;2.83;;
18013;SDS011;9132;47.946;10.394;2023-07-28T11:36:47;3.03;;;2.72;;
18013;SDS011;9132;47.946;10.394;2023-07-28T11:39:14;3.88;;;2.90;;
18013;SDS011;9132;47.946;10.394;2023-07-28T11:41:42;3.70;;;3.20;;
18013;SDS011;9132;47.946;10.394;2023-07-28T11:44:08;2.58;;;2.38;;
18013;SDS011;9132;47.946;10.394;2023-07-28T11:46:35;4.47;;;2.85;;
18013;SDS011;9132;47.946;10.394;2023-07-28T11:49:13;4.25;;;2.67;;
18013;SDS011;9132;47.946;10.394;2023-07-28T11:51:40;3.05;;;2.72;;
18013;SDS011;9132;47.946;10.394;2023-07-28T11:54:10;3.85;;;2.67;;
18013;SDS011;9132;47.946;10.394;2023-07-28T11:56:36;3.95;;;2.92;;
18013;SDS011;9132;47.946;10.394;2023-07-28T11:59:04;2.90;;;2.60;;
18013;SDS011;9132;47.946;10.394;2023-07-28T12:01:30;2.88;;;2.50;;
18013;SDS011;9132;47.946;10.394;2023-07-28T12:03:57;3.28;;;2.70;;
18013;SDS011;9132;47.946;10.394;2023-07-28T12:06:26;5.43;;;2.95;;
18013;SDS011;9132;47.946;10.394;2023-07-28T12:08:52;2.88;;;2.47;;
18013;SDS011;9132;47.946;10.394;2023-07-28T12:11:20;5.75;;;3.17;;
18013;SDS011;9132;47.946;10.394;2023-07-28T12:13:49;3.03;;;2.72;;
18013;SDS011;9132;47.946;10.394;2023-07-28T12:18:59;3.10;;;2.70;;
18013;SDS011;9132;47.946;10.394;2023-07-28T12:21:25;3.95;;;2.75;;
18013;SDS011;9132;47.946;10.394;2023-07-28T12:23:51;3.30;;;2.72;;
18013;SDS011;9132;47.946;10.394;2023-07-28T12:26:18;3.22;;;2.92;;
18013;SDS011;9132;47.946;10.394;2023-07-28T12:28:44;4.00;;;2.80;;
18013;SDS011;9132;47.946;10.394;2023-07-28T12:31:11;4.05;;;3.10;;
18013;SDS011;9132;47.946;10.394;2023-07-28T12:33:37;2.85;;;2.40;;
18013;SDS011;9132;47.946;10.394;2023-07-28T12:36:05;4.40;;;3.00;;
18013;SDS011;9132;47.946;10.394;2023-07-28T12:38:32;4.65;;;2.60;;
18013;SDS011;9132;47.946;10.394;2023-07-28T12:40:58;2.97;;;2.78;;
18013;SDS011;9132;47.946;10.394;2023-07-28T12:43:25;3.10;;;2.72;;
18013;SDS011;9132;47.946;10.394;2023-07-28T12:45:51;3.70;;;2.60;;
18013;SDS011;9132;47.946;10.394;2023-07-28T12:48:18;4.25;;;2.80;;
18013;SDS011;9132;47.946;10.394;2023-07-28T12:50:44;4.07;;;2.70;;
18013;SDS011;9132;47.946;10.394;2023-07-28T12:53:12;3.63;;;3.00;;
18013;SDS011;9132;47.946;10.394;2023-07-28T12:55:39;2.92;;;2.67;;
18013;SDS011;9132;47.946;10.394;2023-07-28T12:58:05;3.15;;;2.85;;
18013;SDS011;9132;47.946;10.394;2023-07-28T13:00:32;3.60;;;3.03;;
18013;SDS011;9132;47.946;10.394;2023-07-28T13:02:58;4.43;;;3.22;;
18013;SDS011;9132;47.946;10.394;2023-07-28T13:05:25;3.10;;;2.80;;
18013;SDS011;9132;47.946;10.394;2023-07-28T13:07:52;3.45;;;2.85;;
18013;SDS011;9132;47.946;10.394;2023-07-28T13:10:19;4.05;;;3.03;;
18013;SDS011;9132;47.946;10.394;2023-07-28T13:12:46;3.35;;;3.05;;
18013;SDS011;9132;47.946;10.394;2023-07-28T13:15:12;2.92;;;2.72;;
18013;SDS011;9132;47.946;10.394;2023-07-28T13:17:38;3.33;;;2.90;;
18013;SDS011;9132;47.946;10.394;2023-07-28T13:20:05;3.80;;;3.00;;
18013;SDS011;9132;47.946;10.394;2023-07-28T13:22:32;4.68;;;2.90;;
18013;SDS011;9132;47.946;10.394;2023-07-28T13:24:58;5.72;;;2.92;;
18013;SDS011;9132;47.946;10.394;2023-07-28T13:27:26;4.03;;;2.92;;
18013;SDS011;9132;47.946;10.394;2023-07-28T13:29:52;5.53;;;3.13;;
18013;SDS011;9132;47.946;10.394;2023-07-28T13:32:23;3.78;;;2.85;;
18013;SDS011;9132;47.946;10.394;2023-07-28T13:34:49;2.92;;;2.63;;
18013;SDS011;9132;47.946;10.394;2023-07-28T13:37:17;4.50;;;3.00;;
18013;SDS011;9132;47.946;10.394;2023-07-28T13:39:43;4.78;;;2.90;;
18013;SDS011;9132;47.946;10.394;2023-07-28T13:42:10;3.53;;;2.92;;
18013;SDS011;9132;47.946;10.394;2023-07-28T13:44:40;3.20;;;2.90;;
18013;SDS011;9132;47.946;10.394;2023-07-28T13:47:07;3.80;;;2.90;;
18013;SDS011;9132;47.946;10.394;2023-07-28T13:49:33;3.60;;;3.17;;
18013;SDS011;9132;47.946;10.394;2023-07-28T13:52:01;3.03;;;2.72;;
18013;SDS011;9132;47.946;10.394;2023-07-28T13:54:28;3.35;;;3.00;;
18013;SDS011;9132;47.946;10.394;2023-07-28T13:56:57;2.90;;;2.60;;
18013;SDS011;9132;47.946;10.394;2023-07-28T13:59:24;3.80;;;2.88;;
18013;SDS011;9132;47.946;10.394;2023-07-28T14:01:52;3.90;;;3.08;;
18013;SDS011;9132;47.946;10.394;2023-07-28T14:04:18;3.22;;;2.92;;
18013;SDS011;9132;47.946;10.394;2023-07-28T14:06:45;3.75;;;3.05;;
18013;SDS011;9132;47.946;10.394;2023-07-28T14:09:11;3.97;;;2.53;;
18013;SDS011;9132;47.946;10.394;2023-07-28T14:11:38;5.18;;;3.35;;
18013;SDS011;9132;47.946;10.394;2023-07-28T14:14:04;5.18;;;3.20;;
18013;SDS011;9132;47.946;10.394;2023-07-28T14:16:31;3.30;;;3.00;;
18013;SDS011;9132;47.946;10.394;2023-07-28T14:18:59;4.75;;;2.83;;
18013;SDS011;9132;47.946;10.394;2023-07-28T14:21:25;3.80;;;3.28;;
18013;SDS011;9132;47.946;10.394;2023-07-28T14:23:52;4.72;;;3.45;;
18013;SDS011;9132;47.946;10.394;2023-07-28T14:26:19;3.20;;;2.90;;
18013;SDS011;9132;47.946;10.394;2023-07-28T14:28:45;3.53;;;3.20;;
18013;SDS011;9132;47.946;10.394;2023-07-28T14:31:12;3.10;;;2.72;;
18013;SDS011;9132;47.946;10.394;2023-07-28T14:33:38;2.83;;;2.55;;
18013;SDS011;9132;47.946;10.394;2023-07-28T14:36:06;4.53;;;3.08;;
18013;SDS011;9132;47.946;10.394;2023-07-28T14:38:33;3.25;;;2.55;;
18013;SDS011;9132;47.946;10.394;2023-07-28T14:40:59;4.65;;;3.20;;
18013;SDS011;9132;47.946;10.394;2023-07-28T14:43:25;3.40;;;2.90;;
18013;SDS011;9132;47.946;10.394;2023-07-28T14:45:52;4.38;;;3.20;;
18013;SDS011;9132;47.946;10.394;2023-07-28T14:48:18;3.65;;;3.13;;